Flight Track Log - Related Links

Times and Time Zones

All times are in EDT time to prevent confusion due to time zone crossing. See the ASQ5678 flight status page for this flight to view local times or setup timezone preferences in your user account.

Time Position Orientation Groundspeed Altitude Reporting Facility
EDT Latitude Longitude Course Direction KTS MPH feet Rate Location/Type
Tue 08:52:14 PM 40.6500 -74.1833 270° West 190 219 1,600  Level New York TRACON
Tue 08:53:19 PM 40.6167 -74.2500 237° Southwest 227 261 3,100 1,765 Climbing New York TRACON
Tue 08:54:13 PM 40.6000 -74.3167 252° West 232 267 5,100 2,211 Climbing New York TRACON
Tue 08:55:00 PM 40.6834 -74.6753 270° West  Level FlightAware Approximate
Tue 08:55:13 PM 40.6167 -74.4000 285° West 245 282 7,300  Level New York TRACON
Tue 08:56:00 PM 40.6834 -74.8025 270° West  Level FlightAware Approximate
Tue 08:56:08 PM 40.6167 -74.4833 270° West 244 281 9,700  Level New York TRACON
Tue 08:57:00 PM 40.6833 -74.9297 270° West  Level FlightAware Approximate
Tue 08:58:04 PM 40.6419 -74.6436 282° West 260 299 13,300  Level New York Center
Tue 08:59:04 PM 40.6528 -74.7511 278° West 265 305 14,400 744 Climbing New York Center
Tue 09:00:05 PM 40.6494 -74.8547 268° West 300 345 14,800 504 Climbing New York Center
Tue 09:01:03 PM 40.6097 -74.9728 246° West 346 398 15,400 850 Climbing New York Center
Tue 09:02:05 PM 40.5614 -75.1008 244° Southwest 357 411 16,500 1,100 Climbing New York Center
Tue 09:03:03 PM 40.5264 -75.1969 244° Southwest 357 411 17,600 1,311 Climbing New York Center
Tue 09:04:04 PM 40.4842 -75.3225 246° West 350 403 19,100 1,230 Climbing New York Center
Tue 09:05:05 PM 40.4400 -75.4394 244° Southwest 350 403 20,100 958 Climbing New York Center
Tue 09:06:03 PM 40.3956 -75.5592 244° Southwest 361 415 21,000 958 Climbing New York Center
Tue 09:07:04 PM 40.3511 -75.6814 245° Southwest 367 422 22,000 950 Climbing New York Center
Tue 09:08:03 PM 40.3064 -75.8033 244° Southwest 373 429 22,900 960 Climbing New York Center
Tue 09:09:59 PM 40.2128 -76.0506 244° Southwest 376 433 24,800 949 Climbing Washington Center
Tue 09:11:00 PM 40.1664 -76.1722 244° Southwest 376 433 25,700 950 Climbing Washington Center
Tue 09:11:59 PM 40.1178 -76.2967 243° Southwest 381 438 26,700 966 Climbing Washington Center
Tue 09:12:58 PM 40.0669 -76.4128 240° Southwest 381 438 27,600 843 Climbing Washington Center
Tue 09:14:00 PM 40.0247 -76.5044 239° Southwest 381 438 28,400 927 Climbing Washington Center
Tue 09:15:01 PM 39.9611 -76.6364 238° Southwest 381 438 29,500 1,068 Climbing Washington Center
Tue 09:15:58 PM 39.9039 -76.7464 236° Southwest 381 438 30,500 966 Climbing Washington Center
Tue 09:16:59 PM 39.8506 -76.8672 240° Southwest 381 438 31,400 934 Climbing Washington Center
Tue 09:18:00 PM 39.7931 -76.9822 237° Southwest 381 438 32,400 942 Climbing Washington Center
Tue 09:19:00 PM 39.7397 -77.1000 240° Southwest 386 444 33,300 814 Climbing Washington Center
Tue 09:19:58 PM 39.6839 -77.2200 239° Southwest 381 438 34,000 356 Climbing Washington Center
Tue 09:20:58 PM 39.6258 -77.3428 238° Southwest 386 444 34,000  Level Washington Center
Tue 09:21:59 PM 39.5658 -77.4678 238° Southwest 400 460 34,000  Level Washington Center
Tue 09:23:00 PM 39.5033 -77.5981 238° Southwest 417 480 34,000  Level Washington Center
Tue 09:24:00 PM 39.4425 -77.7306 239° Southwest 429 494 34,000  Level Washington Center
Tue 09:25:01 PM 39.3819 -77.8631 239° Southwest 429 494 34,000  Level Washington Center
Tue 09:25:58 PM 39.3272 -77.9956 242° Southwest 424 488 34,000  Level Washington Center
Tue 09:26:59 PM 39.2764 -78.1281 244° Southwest 419 482 34,000 -50 Level Washington Center
Tue 09:27:59 PM 39.2236 -78.2600 243° Southwest 419 482 33,900  Descending Washington Center
Tue 09:28:58 PM 39.1664 -78.3944 241° Southwest 425 489 34,000 50 Climbing Washington Center
Tue 09:29:58 PM 39.1153 -78.5292 244° Southwest 425 489 34,000  Level Washington Center
Tue 09:31:00 PM 39.0619 -78.6578 242° Southwest 420 483 34,000  Level Washington Center
Tue 09:32:00 PM 39.0125 -78.7919 245° Southwest 420 483 34,000  Level Washington Center
Tue 09:33:00 PM 38.9878 -78.9381 258° West 420 483 34,000  Level Washington Center
Tue 09:34:01 PM 38.9692 -79.0839 261° West 420 483 34,000  Level Washington Center
Tue 09:34:58 PM 38.9481 -79.2325 260° West 420 483 34,000  Level Washington Center
Tue 09:35:59 PM 38.9289 -79.3783 260° West 425 489 34,000  Level Washington Center
Tue 09:37:00 PM 38.9075 -79.5264 260° West 430 495 34,000  Level Washington Center
Tue 09:37:58 PM 38.8878 -79.6775 261° West 430 495 34,000  Level Washington Center
Tue 09:38:59 PM 38.8661 -79.8231 259° West 430 495 34,000  Level Washington Center
Tue 09:39:31 PM 38.8533 -79.8878 256° West 419 482 34,000  Level Indianapolis Center
Tue 09:40:33 PM 38.8272 -80.0647 259° West 421 484 34,000  Level Indianapolis Center
Tue 09:41:34 PM 38.8156 -80.2144 264° West 422 486 34,000  Level Indianapolis Center
Tue 09:42:36 PM 38.8131 -80.3619 269° West 414 476 34,000  Level Indianapolis Center
Tue 09:43:37 PM 38.8083 -80.5108 268° West 417 480 34,000  Level Indianapolis Center
Tue 09:44:39 PM 38.8039 -80.6625 268° West 424 488 34,000  Level Indianapolis Center
Tue 09:45:40 PM 38.7836 -80.8081 260° West 415 478 34,000  Level Indianapolis Center
Tue 09:46:42 PM 38.7578 -80.9486 257° West 408 470 34,000 -145 Level Indianapolis Center
Tue 09:47:44 PM 38.7319 -81.0897 257° West 405 466 33,700 -488 Descending Indianapolis Center
Tue 09:48:45 PM 38.7017 -81.2578 257° West 403 464 33,000 -341 Descending Indianapolis Center
Tue 09:49:47 PM 38.6772 -81.3925 257° West 402 463 33,000 -293 Level Indianapolis Center
Tue 09:50:48 PM 38.6514 -81.5531 258° West 414 476 32,400 -488 Descending Indianapolis Center
Tue 09:51:50 PM 38.6319 -81.6742 258° West 422 486 32,000 -195 Descending Indianapolis Center
Tue 09:52:51 PM 38.6075 -81.8517 260° West 422 486 32,000  Level Indianapolis Center
Tue 09:53:53 PM 38.5856 -82.0014 259° West 427 491 32,000  Level Indianapolis Center
Tue 09:54:54 PM 38.5644 -82.1489 260° West 424 488 32,000  Level Indianapolis Center
Tue 09:55:56 PM 38.5433 -82.2950 260° West 420 483 32,000 -341 Level Indianapolis Center
Tue 09:56:57 PM 38.5219 -82.4400 259° West 417 480 31,300 -878 Descending Indianapolis Center
Tue 09:57:59 PM 38.4972 -82.6047 259° West 418 481 30,200 -1,073 Descending Indianapolis Center
Tue 09:59:00 PM 38.4753 -82.7506 259° West 419 482 29,100 -1,024 Descending Indianapolis Center
Tue 10:00:02 PM 38.4525 -82.8994 259° West 425 489 28,100 -1,122 Descending Indianapolis Center
Tue 10:01:03 PM 38.4297 -83.0483 259° West 428 493 26,800 -1,366 Descending Indianapolis Center
Tue 10:02:05 PM 38.4056 -83.2025 259° West 438 504 25,300 -1,512 Descending Indianapolis Center
Tue 10:03:06 PM 38.3828 -83.3522 259° West 436 502 23,700 -2,164 Descending Indianapolis Center
Tue 10:04:07 PM 38.3883 -83.4897 273° West 401 461 20,900 -2,829 Descending Indianapolis Center
Tue 10:05:09 PM 38.4461 -83.6036 303° West 380 437 17,900 -3,171 Descending Indianapolis Center
Tue 10:06:10 PM 38.5114 -83.7283 304° West 363 418 14,400 -3,171 Descending Indianapolis Center
Tue 10:07:12 PM 38.5658 -83.8331 304° West 353 406 11,400 -2,098 Descending Indianapolis Center
Tue 10:08:13 PM 38.6158 -83.9292 304° West 326 375 10,100 -732 Descending Indianapolis Center
Tue 10:09:15 PM 38.6697 -84.0297 304° West 324 373 9,900 -98 Descending Indianapolis Center
Tue 10:10:16 PM 38.7219 -84.1311 303° West 334 384 9,900  Level Indianapolis Center
Tue 10:11:18 PM 38.7750 -84.2331 304° West 339 390 9,900  Level Indianapolis Center
Tue 10:12:19 PM 38.8281 -84.3369 303° West 343 395 9,900  Level Indianapolis Center
Tue 10:13:21 PM 38.8808 -84.4406 303° West 343 395 9,900  Level Indianapolis Center
Tue 10:14:22 PM 38.9439 -84.5264 313° West 332 382 9,900 -683 Level Indianapolis Center
Tue 10:15:24 PM 39.0219 -84.5394 353° North 287 330 8,500 -1,610 Descending Indianapolis Center
Tue 10:16:25 PM 39.0992 -84.5417 359° North 276 318 6,600 -1,902 Descending Indianapolis Center
Tue 10:17:27 PM 39.1736 -84.5414 360° North 268 308 4,600 -1,659 Descending Indianapolis Center
Tue 10:18:28 PM 39.1953 -84.6150 291° West 247 284 3,200 -1,377 Descending Indianapolis Center

Login

Don't have an account? Register now (free) for customized features, flight alerts, and more!